Time;durP1;ratioP1;P1;durP2;ratioP2;P2;SDS_P1;SDS_P2;PMS_P1;PMS_P2;Temp;Humidity;BMP_temperature;BMP_pressure;BME280_temperature;BME280_humidity;BME280_pressure;Samples;Min_cycle;Max_cycle;Signal;HPM_P1;HPM_P2
2023/07/17 00:01:50;;;;;;;9.27;2.50;;;17.00;99.90;;;;;;4166327;28;20176;-82
2023/07/17 00:03:50;;;;;;;9.80;2.60;;;17.00;99.90;;;;;;4166473;28;20608;-82
2023/07/17 00:05:51;;;;;;;10.93;2.33;;;17.10;99.90;;;;;;4182620;28;20163;-83
2023/07/17 00:07:52;;;;;;;9.65;2.50;;;17.20;99.90;;;;;;4166649;28;20178;-82
2023/07/17 00:09:53;;;;;;;9.38;2.42;;;17.10;99.90;;;;;;4149953;28;20189;-82
2023/07/17 00:11:53;;;;;;;5.55;2.30;;;17.10;99.90;;;;;;4149843;28;20185;-82
2023/07/17 00:13:54;;;;;;;8.90;2.60;;;17.10;99.90;;;;;;4149644;28;20724;-85
2023/07/17 00:15:55;;;;;;;11.85;2.80;;;17.10;99.90;;;;;;4167591;28;20176;-82
2023/07/17 00:17:56;;;;;;;14.00;2.95;;;17.20;99.90;;;;;;4166136;28;20621;-82
2023/07/17 00:19:57;;;;;;;8.80;2.28;;;17.00;99.90;;;;;;4182756;28;20219;-82
2023/07/17 00:21:58;;;;;;;11.93;2.30;;;16.80;99.90;;;;;;4166123;28;20172;-82
2023/07/17 00:23:59;;;;;;;5.60;2.10;;;16.70;99.90;;;;;;4166271;28;20540;-81
2023/07/17 00:25:59;;;;;;;7.78;2.47;;;16.70;99.90;;;;;;4149644;28;20716;-83
2023/07/17 00:28:00;;;;;;;9.18;2.17;;;16.60;99.90;;;;;;4165949;28;20661;-82
2023/07/17 00:30:01;;;;;;;8.20;2.35;;;16.60;99.90;;;;;;4149484;28;20256;-82
2023/07/17 00:32:02;;;;;;;8.88;2.40;;;16.70;99.90;;;;;;4182579;28;20245;-81
2023/07/17 00:34:02;;;;;;;6.30;2.10;;;16.70;99.90;;;;;;4149172;28;20188;-84
2023/07/17 00:36:03;;;;;;;5.95;2.15;;;16.80;99.90;;;;;;4165859;28;20181;-82
2023/07/17 00:38:04;;;;;;;7.90;2.28;;;16.80;99.90;;;;;;4149535;28;20201;-82
2023/07/17 00:40:07;;;;;;;9.93;2.40;;;16.80;99.90;;;;;;4149456;28;20523;-82
2023/07/17 00:42:10;;;;;;;10.30;2.90;;;16.70;99.90;;;;;;4149447;28;20263;-82
2023/07/17 00:44:11;;;;;;;8.23;2.10;;;16.70;99.90;;;;;;4166998;28;20222;-82
2023/07/17 00:46:11;;;;;;;7.38;2.28;;;16.60;99.90;;;;;;4165962;28;20172;-85
2023/07/17 00:48:13;;;;;;;6.28;2.30;;;16.60;99.90;;;;;;4165706;28;20184;-82
2023/07/17 00:50:14;;;;;;;6.25;2.20;;;16.40;99.90;;;;;;4167061;28;20223;-82
2023/07/17 00:52:15;;;;;;;10.45;2.20;;;16.50;99.90;;;;;;4165815;28;20180;-81
2023/07/17 00:54:18;;;;;;;5.70;2.17;;;16.50;99.90;;;;;;4165635;28;20572;-85
2023/07/17 00:56:19;;;;;;;7.20;2.08;;;16.40;99.90;;;;;;4165895;28;20180;-82
2023/07/17 00:58:19;;;;;;;7.72;2.00;;;16.30;99.90;;;;;;4165471;28;20721;-81
2023/07/17 01:00:22;;;;;;;6.72;2.03;;;16.30;99.90;;;;;;4166766;28;20168;-81
2023/07/17 01:02:23;;;;;;;7.35;1.88;;;16.40;99.90;;;;;;4165716;28;20164;-81
2023/07/17 01:04:26;;;;;;;8.93;2.38;;;16.50;99.90;;;;;;4149171;28;20168;-82
2023/07/17 01:06:27;;;;;;;8.73;2.13;;;16.40;99.90;;;;;;4165540;28;20172;-85
2023/07/17 01:08:28;;;;;;;6.50;2.20;;;16.30;99.90;;;;;;4148907;28;20626;-81
2023/07/17 01:10:29;;;;;;;12.68;2.35;;;16.20;99.90;;;;;;4166758;28;20258;-82
2023/07/17 01:12:32;;;;;;;6.68;2.00;;;16.20;99.90;;;;;;4165265;28;20184;-81
2023/07/17 01:14:33;;;;;;;8.15;2.15;;;16.20;99.90;;;;;;4165254;28;20168;-82
2023/07/17 01:16:35;;;;;;;8.32;2.03;;;16.10;99.90;;;;;;4165428;28;20268;-82
2023/07/17 01:18:36;;;;;;;9.88;2.33;;;16.10;99.90;;;;;;4165449;28;20184;-82
2023/07/17 01:20:37;;;;;;;6.25;2.05;;;16.20;99.90;;;;;;4165141;28;20601;-82
2023/07/17 01:23:07;;;;;;;5.00;1.65;;;16.20;99.90;;;;;;4166443;28;20168;-82
2023/07/17 01:25:08;;;;;;;5.60;1.95;;;16.30;99.90;;;;;;4157624;28;20188;-82
2023/07/17 01:27:09;;;;;;;5.95;2.13;;;16.30;99.90;;;;;;4165181;28;20187;-82
2023/07/17 01:29:10;;;;;;;6.88;2.17;;;16.30;99.90;;;;;;4164858;28;20192;-82
2023/07/17 01:31:11;;;;;;;10.30;2.35;;;16.20;99.90;;;;;;4166161;28;20278;-82
2023/07/17 01:33:13;;;;;;;6.90;2.15;;;16.20;99.90;;;;;;4165033;28;20171;-82
2023/07/17 01:35:14;;;;;;;6.10;1.92;;;16.10;99.90;;;;;;4165204;28;20168;-84
2023/07/17 01:37:15;;;;;;;11.68;2.22;;;16.00;99.90;;;;;;4165036;28;20656;-82
2023/07/17 01:39:15;;;;;;;8.10;2.10;;;15.90;99.90;;;;;;4165251;28;20196;-82
2023/07/17 01:41:16;;;;;;;9.88;1.92;;;15.90;99.90;;;;;;4164785;28;20260;-83
2023/07/17 01:43:17;;;;;;;9.35;2.10;;;16.00;99.90;;;;;;4164758;28;20230;-82
2023/07/17 01:45:17;;;;;;;7.60;2.22;;;15.90;99.90;;;;;;4181501;28;20179;-81
2023/07/17 01:47:18;;;;;;;8.38;2.25;;;15.90;99.90;;;;;;4148591;28;20626;-82
2023/07/17 01:49:19;;;;;;;6.35;2.40;;;15.90;99.90;;;;;;4165923;28;20199;-85
2023/07/17 01:51:19;;;;;;;8.27;2.30;;;15.90;99.90;;;;;;4148327;28;20720;-81
2023/07/17 01:53:21;;;;;;;6.15;1.85;;;15.90;99.90;;;;;;4165981;28;20172;-81
2023/07/17 01:55:22;;;;;;;7.20;2.35;;;15.90;99.90;;;;;;4164690;28;20274;-81
2023/07/17 01:57:22;;;;;;;9.60;2.08;;;15.90;99.90;;;;;;4165965;28;20172;-81
2023/07/17 01:59:24;;;;;;;4.20;1.90;;;15.80;99.90;;;;;;4148296;28;20193;-82
2023/07/17 02:01:25;;;;;;;6.78;2.20;;;15.60;99.90;;;;;;4164575;28;20246;-82
2023/07/17 02:03:27;;;;;;;6.85;2.00;;;15.70;99.90;;;;;;4181104;28;20315;-81
2023/07/17 02:05:29;;;;;;;5.55;1.65;;;15.70;99.90;;;;;;4164587;28;20180;-82
2023/07/17 02:07:30;;;;;;;6.53;2.20;;;15.60;99.90;;;;;;4165685;28;20204;-82
2023/07/17 02:09:30;;;;;;;6.40;1.80;;;15.80;99.90;;;;;;4164535;28;20196;-81
2023/07/17 02:11:31;;;;;;;6.10;1.65;;;15.80;99.90;;;;;;4164570;28;20204;-82
2023/07/17 02:13:32;;;;;;;7.75;2.08;;;15.90;99.90;;;;;;4148064;28;20185;-84
2023/07/17 02:15:32;;;;;;;6.32;2.03;;;16.00;99.90;;;;;;4164231;28;20205;-82
2023/07/17 02:17:35;;;;;;;12.32;1.90;;;16.10;99.90;;;;;;4164641;28;20175;-81
2023/07/17 02:19:35;;;;;;;12.65;2.10;;;16.20;99.90;;;;;;4165661;28;20191;-85
2023/07/17 02:21:36;;;;;;;10.65;2.00;;;16.10;99.90;;;;;;4164212;28;20591;-82
2023/07/17 02:23:37;;;;;;;5.55;1.67;;;16.10;99.90;;;;;;4164094;28;20168;-85
2023/07/17 02:25:40;;;;;;;6.55;1.73;;;16.20;99.90;;;;;;4165535;28;20199;-82
2023/07/17 02:27:41;;;;;;;7.50;1.90;;;16.10;99.90;;;;;;4164932;28;20187;-82
2023/07/17 02:29:42;;;;;;;8.02;2.03;;;16.00;99.90;;;;;;4180941;28;20245;-84
2023/07/17 02:31:42;;;;;;;7.03;1.75;;;16.00;99.90;;;;;;4147994;28;20247;-82
2023/07/17 02:33:43;;;;;;;7.13;1.75;;;16.00;99.90;;;;;;4164281;28;20256;-82
2023/07/17 02:35:44;;;;;;;8.27;2.35;;;16.00;99.90;;;;;;4165282;28;20175;-82
2023/07/17 02:37:45;;;;;;;5.07;2.00;;;15.90;99.90;;;;;;4163996;28;20176;-82
2023/07/17 02:39:45;;;;;;;7.05;1.90;;;15.90;99.90;;;;;;4164257;28;20196;-82
2023/07/17 02:41:47;;;;;;;6.30;1.80;;;15.80;99.90;;;;;;4147988;28;20219;-82
2023/07/17 02:43:48;;;;;;;6.47;2.05;;;15.80;99.90;;;;;;4164122;28;20683;-82
2023/07/17 02:45:48;;;;;;;8.10;2.17;;;15.70;99.90;;;;;;4163916;28;20267;-81
2023/07/17 02:47:49;;;;;;;11.23;1.88;;;15.70;99.90;;;;;;4165314;28;20207;-81
2023/07/17 02:49:51;;;;;;;5.47;1.70;;;15.60;99.90;;;;;;4163969;28;20230;-81
2023/07/17 02:51:54;;;;;;;6.68;1.75;;;15.60;99.90;;;;;;4164002;28;20188;-81
2023/07/17 02:53:55;;;;;;;4.38;1.48;;;15.60;99.90;;;;;;4180390;28;20221;-81
2023/07/17 02:55:55;;;;;;;6.72;1.58;;;15.50;99.90;;;;;;4164057;28;20254;-82
2023/07/17 02:57:56;;;;;;;7.40;2.28;;;15.70;99.90;;;;;;4163450;28;20184;-82
2023/07/17 02:59:57;;;;;;;8.05;1.77;;;15.60;99.90;;;;;;4164103;28;20637;-82
2023/07/17 03:01:58;;;;;;;6.00;1.63;;;15.60;99.90;;;;;;4163765;28;20182;-82
2023/07/17 03:03:59;;;;;;;8.52;2.00;;;15.50;99.90;;;;;;4147686;28;20165;-81
2023/07/17 03:06:00;;;;;;;6.85;2.13;;;15.60;99.90;;;;;;4147592;28;20176;-82
2023/07/17 03:08:01;;;;;;;8.32;2.03;;;15.60;99.90;;;;;;4164984;28;20179;-82
2023/07/17 03:10:02;;;;;;;4.63;2.22;;;15.70;99.90;;;;;;4147374;28;20172;-82
2023/07/17 03:12:03;;;;;;;9.15;2.00;;;15.70;99.90;;;;;;4165221;28;20168;-82
2023/07/17 03:14:04;;;;;;;8.77;1.98;;;15.70;99.90;;;;;;4147536;28;20187;-82
2023/07/17 03:16:05;;;;;;;9.65;2.35;;;15.70;99.90;;;;;;4147873;28;20169;-82
2023/07/17 03:18:05;;;;;;;6.35;1.80;;;15.60;99.90;;;;;;4147369;28;20173;-82
2023/07/17 03:20:09;;;;;;;6.88;2.30;;;15.60;99.90;;;;;;4163758;28;20182;-82
2023/07/17 03:22:10;;;;;;;4.93;1.95;;;15.50;99.90;;;;;;4147322;28;20180;-82
2023/07/17 03:24:11;;;;;;;8.05;2.00;;;15.70;99.90;;;;;;4164049;28;20176;-82
2023/07/17 03:26:11;;;;;;;6.32;2.08;;;15.70;99.90;;;;;;4163868;28;20226;-82
2023/07/17 03:28:12;;;;;;;7.00;1.98;;;15.60;99.90;;;;;;4163591;28;20172;-82
2023/07/17 03:30:13;;;;;;;8.43;2.00;;;15.50;99.90;;;;;;4163681;28;20180;-82
2023/07/17 03:32:14;;;;;;;9.50;2.38;;;15.40;99.90;;;;;;4147446;28;20212;-85
2023/07/17 03:34:15;;;;;;;7.18;2.30;;;15.50;99.90;;;;;;4163474;28;20690;-85
2023/07/17 03:36:15;;;;;;;6.80;2.42;;;15.40;99.90;;;;;;4147450;28;20223;-82
2023/07/17 03:38:17;;;;;;;13.48;2.20;;;15.40;99.90;;;;;;4163479;28;20688;-82
2023/07/17 03:40:18;;;;;;;12.40;2.72;;;15.30;99.90;;;;;;4163498;28;20181;-82
2023/07/17 03:42:19;;;;;;;6.65;2.20;;;15.40;99.90;;;;;;4179969;28;20753;-82
2023/07/17 03:44:20;;;;;;;6.78;2.30;;;15.30;99.90;;;;;;4163526;28;20656;-82
2023/07/17 03:46:20;;;;;;;6.13;2.20;;;15.30;99.90;;;;;;4163380;28;20191;-82
2023/07/17 03:48:21;;;;;;;7.18;2.50;;;15.30;99.90;;;;;;4147142;28;20589;-81
2023/07/17 03:50:23;;;;;;;9.25;2.45;;;15.30;99.90;;;;;;4147129;28;20271;-82
2023/07/17 03:52:23;;;;;;;15.02;3.42;;;15.30;99.90;;;;;;4163524;28;20164;-82
2023/07/17 03:54:25;;;;;;;9.88;2.20;;;15.30;99.90;;;;;;4163344;28;20267;-81
2023/07/17 03:56:27;;;;;;;9.07;2.75;;;15.20;99.90;;;;;;4147156;28;20626;-81
2023/07/17 03:58:28;;;;;;;11.73;2.63;;;15.10;99.90;;;;;;4146847;28;20197;-81
2023/07/17 04:00:29;;;;;;;6.22;2.40;;;15.10;99.90;;;;;;4147057;28;20621;-82
2023/07/17 04:02:29;;;;;;;14.32;2.88;;;15.10;99.90;;;;;;4164682;28;20175;-82
2023/07/17 04:04:31;;;;;;;8.15;2.70;;;15.10;99.90;;;;;;4163411;28;20298;-82
2023/07/17 04:06:33;;;;;;;9.00;2.70;;;15.10;99.90;;;;;;4163411;28;20204;-82
2023/07/17 04:08:35;;;;;;;10.85;2.80;;;15.00;99.90;;;;;;4164729;28;20223;-82
2023/07/17 04:10:36;;;;;;;7.72;2.78;;;15.20;99.90;;;;;;4165756;28;20212;-84
2023/07/17 04:12:37;;;;;;;9.48;2.67;;;15.20;99.90;;;;;;4166530;28;20226;-82
2023/07/17 04:14:38;;;;;;;8.05;3.10;;;15.20;99.90;;;;;;4166399;28;20242;-81
2023/07/17 04:16:40;;;;;;;8.80;2.75;;;15.30;99.90;;;;;;4150166;28;20196;-82
2023/07/17 04:18:41;;;;;;;8.50;3.00;;;15.40;99.90;;;;;;4166421;28;20291;-83
2023/07/17 04:20:42;;;;;;;9.80;3.28;;;15.40;99.90;;;;;;4166323;28;20175;-81
2023/07/17 04:22:43;;;;;;;13.90;3.00;;;15.30;99.90;;;;;;4166258;28;20188;-82
2023/07/17 04:24:43;;;;;;;9.80;2.88;;;15.30;99.90;;;;;;4167410;28;20164;-84
2023/07/17 04:26:45;;;;;;;10.10;2.72;;;15.30;99.90;;;;;;4166177;28;20731;-82
2023/07/17 04:28:45;;;;;;;10.10;2.80;;;15.30;99.90;;;;;;4149663;28;20193;-85
2023/07/17 04:30:46;;;;;;;8.18;2.70;;;15.40;99.90;;;;;;4166090;28;20253;-82
2023/07/17 04:32:50;;;;;;;13.48;3.25;;;15.70;99.90;;;;;;4150023;28;20633;-82
2023/07/17 04:34:51;;;;;;;8.02;2.40;;;15.80;99.90;;;;;;4166222;28;20180;-83
2023/07/17 04:36:52;;;;;;;14.68;3.03;;;15.70;99.90;;;;;;4182312;28;20267;-82
2023/07/17 04:38:52;;;;;;;9.52;2.83;;;15.70;99.90;;;;;;4166222;28;20534;-84
2023/07/17 04:40:53;;;;;;;10.73;2.90;;;15.90;99.90;;;;;;4166049;28;20172;-81
2023/07/17 04:42:54;;;;;;;9.27;3.20;;;15.80;99.90;;;;;;4166023;28;20591;-82
2023/07/17 04:44:55;;;;;;;10.90;4.22;;;15.80;99.90;;;;;;4149684;28;20172;-82
2023/07/17 04:46:55;;;;;;;9.55;3.22;;;15.90;99.90;;;;;;4167153;28;20255;-82
2023/07/17 04:48:57;;;;;;;12.60;3.15;;;16.00;99.90;;;;;;4149446;28;20204;-81
2023/07/17 04:50:58;;;;;;;14.50;3.63;;;15.90;99.90;;;;;;4165740;28;20207;-82
2023/07/17 04:53:00;;;;;;;12.23;3.17;;;15.80;99.90;;;;;;4165701;28;20572;-85
2023/07/17 04:55:01;;;;;;;12.40;3.47;;;15.90;99.90;;;;;;4149307;28;20173;-82
2023/07/17 04:57:03;;;;;;;10.05;3.65;;;15.90;99.90;;;;;;4165961;28;20164;-81
2023/07/17 04:59:04;;;;;;;13.25;3.55;;;16.00;99.90;;;;;;4165584;28;20196;-82
2023/07/17 05:01:06;;;;;;;8.07;3.53;;;16.00;99.90;;;;;;4149368;28;20600;-82
2023/07/17 05:03:07;;;;;;;12.40;3.70;;;15.90;99.90;;;;;;4165750;28;20230;-82
2023/07/17 05:05:08;;;;;;;9.40;3.78;;;15.90;99.90;;;;;;4165730;28;20176;-85
2023/07/17 05:07:09;;;;;;;9.88;3.92;;;15.90;99.90;;;;;;4149260;28;20173;-85
2023/07/17 05:09:10;;;;;;;16.15;4.32;;;16.00;99.90;;;;;;4165612;28;20267;-83
2023/07/17 05:11:11;;;;;;;13.48;3.85;;;15.90;99.90;;;;;;4165559;28;20224;-83
2023/07/17 05:13:19;;;;;;;13.10;4.05;;;16.00;99.90;;;;;;4149723;28;20172;-86
2023/07/17 05:15:19;;;;;;;10.00;3.88;;;15.90;99.90;;;;;;4165400;28;20709;-82
2023/07/17 05:17:20;;;;;;;8.55;4.03;;;15.90;99.90;;;;;;4149261;28;20169;-85
2023/07/17 05:19:21;;;;;;;9.43;4.38;;;15.90;99.90;;;;;;4165533;28;20706;-86
2023/07/17 05:21:22;;;;;;;12.88;3.80;;;16.10;99.90;;;;;;4164890;28;20188;-83
2023/07/17 05:23:23;;;;;;;11.38;4.15;;;16.20;99.90;;;;;;4149372;28;20179;-83
2023/07/17 05:25:24;;;;;;;11.30;4.38;;;16.10;99.90;;;;;;4165183;28;20247;-85
2023/07/17 05:27:26;;;;;;;14.90;4.22;;;16.10;99.90;;;;;;4165358;28;20195;-83
2023/07/17 05:29:27;;;;;;;14.82;4.18;;;16.10;99.90;;;;;;4148749;28;20188;-83
2023/07/17 05:31:28;;;;;;;14.07;4.60;;;16.10;99.90;;;;;;4165202;28;20219;-85
2023/07/17 05:33:29;;;;;;;17.45;4.20;;;16.30;99.90;;;;;;4165293;28;20318;-85
2023/07/17 05:35:30;;;;;;;12.18;4.47;;;16.30;99.90;;;;;;4164970;28;20179;-83
2023/07/17 05:37:31;;;;;;;12.35;4.68;;;16.30;99.90;;;;;;4165486;28;20176;-83
2023/07/17 05:39:32;;;;;;;18.42;4.72;;;16.40;99.90;;;;;;4165071;28;20196;-85
2023/07/17 05:41:33;;;;;;;15.43;4.53;;;16.30;99.90;;;;;;4165131;28;20211;-83
2023/07/17 05:43:34;;;;;;;15.48;4.25;;;16.50;99.90;;;;;;4165043;28;20168;-83
2023/07/17 05:45:47;;;;;;;15.82;5.25;;;16.60;99.90;;;;;;4166547;28;20225;-83
2023/07/17 05:47:47;;;;;;;17.50;4.88;;;16.60;99.90;;;;;;4165095;28;20250;-83
2023/07/17 05:49:48;;;;;;;15.07;4.78;;;16.70;99.90;;;;;;4164822;28;20196;-86
2023/07/17 05:51:50;;;;;;;18.40;5.35;;;16.70;99.90;;;;;;4164798;28;20216;-82
2023/07/17 05:53:50;;;;;;;14.85;5.18;;;16.80;99.90;;;;;;4165018;28;20186;-82
2023/07/17 05:55:52;;;;;;;17.83;4.70;;;17.00;99.90;;;;;;4148396;28;20181;-83
2023/07/17 05:57:53;;;;;;;13.75;4.82;;;16.70;99.90;;;;;;4148533;28;20576;-82
2023/07/17 05:59:53;;;;;;;17.58;5.07;;;16.80;99.90;;;;;;4181225;28;20192;-82
2023/07/17 06:01:54;;;;;;;13.70;4.97;;;17.00;99.90;;;;;;4164848;28;20199;-85
2023/07/17 06:03:56;;;;;;;18.50;5.70;;;16.90;99.90;;;;;;4148366;28;20176;-83
2023/07/17 06:05:56;;;;;;;14.50;4.78;;;16.80;99.90;;;;;;4148341;28;20175;-82
2023/07/17 06:07:57;;;;;;;21.33;5.53;;;17.00;99.90;;;;;;4148252;28;20177;-82
2023/07/17 06:09:58;;;;;;;16.02;5.80;;;17.20;99.90;;;;;;4148437;28;20260;-83
2023/07/17 06:11:59;;;;;;;14.57;6.00;;;17.40;99.90;;;;;;4164471;28;20216;-83
2023/07/17 06:13:59;;;;;;;19.10;5.47;;;17.40;99.90;;;;;;4180946;28;20183;-82
2023/07/17 06:16:00;;;;;;;24.90;5.68;;;17.50;99.90;;;;;;4148506;28;20242;-85
2023/07/17 06:18:01;;;;;;;19.70;5.00;;;17.80;99.90;;;;;;4165709;28;20223;-86
2023/07/17 06:20:04;;;;;;;20.02;5.47;;;17.70;99.90;;;;;;4164491;28;20184;-86
2023/07/17 06:22:05;;;;;;;20.88;5.97;;;17.80;99.90;;;;;;4164447;28;20198;-85
2023/07/17 06:24:07;;;;;;;20.00;5.68;;;17.90;99.90;;;;;;4164278;28;20168;-83
2023/07/17 06:26:08;;;;;;;21.90;6.00;;;18.00;99.90;;;;;;4147976;28;20247;-86
2023/07/17 06:28:09;;;;;;;20.35;6.28;;;18.20;99.90;;;;;;4147810;28;20577;-83
2023/07/17 06:30:10;;;;;;;19.63;6.05;;;18.30;99.90;;;;;;4148046;28;20220;-85
2023/07/17 06:32:11;;;;;;;16.67;5.97;;;18.40;99.90;;;;;;4163503;28;20198;-82
2023/07/17 06:34:11;;;;;;;21.17;5.18;;;18.50;99.90;;;;;;4164583;28;20203;-83
2023/07/17 06:36:12;;;;;;;20.52;5.70;;;18.60;99.90;;;;;;4147826;28;20180;-82
2023/07/17 06:38:13;;;;;;;18.88;6.18;;;18.70;99.90;;;;;;4147660;28;20169;-83
2023/07/17 06:40:13;;;;;;;21.60;5.80;;;18.80;99.90;;;;;;4164186;28;20172;-83
2023/07/17 06:42:14;;;;;;;18.77;5.93;;;19.00;99.90;;;;;;4164327;28;20263;-85
2023/07/17 06:44:15;;;;;;;24.38;6.20;;;19.10;99.90;;;;;;4147923;28;20177;-85
2023/07/17 06:46:19;;;;;;;20.52;6.55;;;19.20;99.90;;;;;;4147905;28;20176;-86
2023/07/17 06:48:20;;;;;;;14.95;6.35;;;19.00;99.90;;;;;;4147868;28;20260;-82
2023/07/17 06:50:20;;;;;;;21.27;6.07;;;18.90;99.90;;;;;;4147577;28;20164;-83
2023/07/17 06:52:22;;;;;;;20.75;7.10;;;18.70;99.90;;;;;;4164073;28;20224;-83
2023/07/17 06:54:23;;;;;;;18.92;6.50;;;18.70;99.90;;;;;;4164128;28;20165;-85
2023/07/17 06:56:23;;;;;;;17.50;6.68;;;18.70;99.90;;;;;;4164003;28;20172;-83
2023/07/17 06:58:24;;;;;;;13.20;5.57;;;18.70;99.90;;;;;;4147614;28;20204;-85
2023/07/17 07:00:25;;;;;;;21.70;7.18;;;18.90;99.90;;;;;;4165259;28;20227;-82
2023/07/17 07:02:26;;;;;;;17.85;7.00;;;19.00;99.90;;;;;;4163918;28;20226;-82
2023/07/17 07:04:26;;;;;;;16.23;6.47;;;19.00;99.90;;;;;;4163615;28;20246;-82
2023/07/17 07:06:27;;;;;;;19.58;6.70;;;19.00;99.90;;;;;;4163794;28;20176;-85
2023/07/17 07:08:29;;;;;;;18.90;6.85;;;19.00;99.90;;;;;;4164844;28;20553;-86
2023/07/17 07:10:30;;;;;;;14.98;6.00;;;19.30;99.90;;;;;;4147460;28;20705;-83
2023/07/17 07:12:30;;;;;;;23.25;7.03;;;19.40;99.90;;;;;;4180093;28;20346;-83
2023/07/17 07:14:31;;;;;;;18.02;7.43;;;19.50;99.90;;;;;;4163705;28;20275;-83
2023/07/17 07:16:32;;;;;;;14.65;6.55;;;19.60;99.90;;;;;;4163948;28;20277;-83
2023/07/17 07:18:32;;;;;;;14.93;6.70;;;19.70;99.90;;;;;;4180031;28;20192;-83
2023/07/17 07:20:33;;;;;;;20.20;7.15;;;19.90;99.90;;;;;;4147637;28;20219;-82
2023/07/17 07:22:34;;;;;;;16.08;6.93;;;20.80;99.90;;;;;;4163685;28;20565;-86
2023/07/17 07:24:34;;;;;;;15.65;6.70;;;21.60;99.90;;;;;;4147564;28;20731;-85
2023/07/17 07:26:36;;;;;;;18.55;6.57;;;22.60;99.90;;;;;;4147095;28;20199;-82
2023/07/17 07:28:37;;;;;;;24.38;7.20;;;22.90;99.90;;;;;;4179817;28;20555;-83
2023/07/17 07:30:38;;;;;;;21.10;6.85;;;23.20;99.90;;;;;;4163765;28;20202;-86
2023/07/17 07:32:40;;;;;;;17.38;6.90;;;23.70;99.90;;;;;;4163890;28;20251;-83
2023/07/17 07:34:41;;;;;;;15.45;6.28;;;25.00;99.90;;;;;;4163967;28;20624;-86
2023/07/17 07:36:42;;;;;;;14.35;6.25;;;25.40;99.90;;;;;;4163769;28;20226;-86
2023/07/17 07:38:43;;;;;;;18.98;7.22;;;25.90;99.90;;;;;;4163672;28;20675;-83
2023/07/17 07:40:44;;;;;;;14.88;6.20;;;25.10;99.90;;;;;;4163470;28;20267;-83
2023/07/17 07:42:45;;;;;;;16.10;6.05;;;24.50;99.90;;;;;;4163197;28;20173;-83
2023/07/17 07:44:45;;;;;;;17.33;7.18;;;24.40;99.90;;;;;;4149839;28;20264;-84
2023/07/17 07:46:46;;;;;;;15.15;7.00;;;24.40;99.90;;;;;;4183096;28;20541;-85
2023/07/17 07:48:46;;;;;;;14.45;6.45;;;24.30;99.90;;;;;;4150277;28;20189;-83
2023/07/17 07:50:47;;;;;;;16.77;6.57;;;23.70;99.90;;;;;;4166814;28;20307;-84
2023/07/17 07:52:48;;;;;;;17.10;6.57;;;23.40;99.90;;;;;;4166784;28;20180;-84
2023/07/17 07:54:49;;;;;;;21.00;6.35;;;24.30;99.90;;;;;;4166806;28;20163;-83
2023/07/17 07:56:52;;;;;;;12.75;6.28;;;24.50;99.90;;;;;;4166832;28;20180;-83
2023/07/17 07:58:53;;;;;;;20.35;6.90;;;24.70;99.90;;;;;;4149976;28;20231;-84
2023/07/17 08:00:54;;;;;;;12.35;6.15;;;23.90;99.90;;;;;;4168210;28;20172;-83
2023/07/17 08:02:54;;;;;;;13.80;6.30;;;23.70;99.90;;;;;;4166732;28;20588;-83
2023/07/17 08:04:55;;;;;;;15.40;5.63;;;24.20;99.90;;;;;;4183241;28;20171;-84
2023/07/17 08:06:56;;;;;;;14.15;6.00;;;24.80;99.90;;;;;;4166652;28;20172;-83
2023/07/17 08:08:57;;;;;;;15.95;6.22;;;24.60;99.90;;;;;;4150035;28;20192;-84
2023/07/17 08:10:58;;;;;;;14.18;6.55;;;24.20;99.90;;;;;;4166154;28;20303;-86
2023/07/17 08:12:59;;;;;;;13.98;6.45;;;24.00;99.90;;;;;;4149744;28;20177;-83
2023/07/17 08:14:59;;;;;;;18.60;6.13;;;23.10;99.90;;;;;;4182784;28;20167;-83
2023/07/17 08:17:00;;;;;;;16.08;6.03;;;22.60;99.90;;;;;;4149841;28;20201;-83
2023/07/17 08:19:01;;;;;;;18.20;6.68;;;22.40;99.90;;;;;;4166411;28;20227;-85
2023/07/17 08:21:02;;;;;;;16.08;6.50;;;22.40;99.90;;;;;;4150091;28;20268;-84
2023/07/17 08:23:03;;;;;;;13.52;5.82;;;23.10;99.90;;;;;;4182651;28;20172;-83
2023/07/17 08:25:04;;;;;;;13.80;5.32;;;24.60;99.90;;;;;;4166268;28;20235;-83
2023/07/17 08:27:06;;;;;;;12.55;5.38;;;25.40;99.90;;;;;;4166643;28;20288;-86
2023/07/17 08:29:07;;;;;;;12.10;5.53;;;26.20;99.90;;;;;;4149837;28;20530;-83
2023/07/17 08:31:08;;;;;;;15.60;5.75;;;26.80;99.90;;;;;;4166016;28;20203;-84
2023/07/17 08:33:09;;;;;;;13.65;5.82;;;26.80;99.90;;;;;;4165986;28;20275;-84
2023/07/17 08:35:10;;;;;;;16.80;5.25;;;27.30;99.90;;;;;;4182764;28;20167;-84
2023/07/17 08:37:11;;;;;;;10.52;5.40;;;27.40;99.90;;;;;;4166024;28;20327;-84
2023/07/17 08:39:12;;;;;;;10.10;5.35;;;26.50;99.90;;;;;;4166072;28;20196;-84
2023/07/17 08:41:16;;;;;;;13.05;5.50;;;26.70;99.90;;;;;;4149782;28;20749;-86
2023/07/17 08:43:16;;;;;;;14.23;5.45;;;26.90;99.90;;;;;;4149496;28;20208;-87
2023/07/17 08:45:19;;;;;;;15.40;5.38;;;26.40;99.90;;;;;;4165848;28;20172;-84
2023/07/17 08:47:21;;;;;;;14.95;5.50;;;26.20;99.90;;;;;;4149651;28;20184;-83
2023/07/17 08:49:24;;;;;;;11.68;5.57;;;25.70;99.90;;;;;;4166898;28;20211;-86
2023/07/17 08:51:27;;;;;;;19.02;5.30;;;24.90;99.90;;;;;;4149398;28;20211;-83
2023/07/17 08:53:28;;;;;;;13.02;5.57;;;24.40;99.90;;;;;;4166189;28;20180;-86
2023/07/17 08:55:31;;;;;;;15.10;5.50;;;24.30;99.90;;;;;;4165104;28;20165;-83
2023/07/17 08:57:32;;;;;;;10.30;5.13;;;24.60;99.90;;;;;;4166922;28;20651;-84
2023/07/17 08:59:36;;;;;;;11.82;4.65;;;25.00;99.90;;;;;;4148886;28;20185;-84
2023/07/17 09:01:37;;;;;;;11.02;4.70;;;25.40;99.90;;;;;;4165819;28;20180;-83
2023/07/17 09:03:38;;;;;;;12.57;4.32;;;26.20;99.90;;;;;;4166889;28;20233;-83
2023/07/17 09:05:39;;;;;;;10.70;4.70;;;26.90;99.90;;;;;;4165587;28;20176;-84
2023/07/17 09:07:40;;;;;;;17.30;4.50;;;27.70;99.90;;;;;;4165666;28;20651;-82
2023/07/17 09:09:40;;;;;;;19.27;4.60;;;27.50;99.90;;;;;;4148890;28;20236;-84
2023/07/17 09:11:41;;;;;;;12.05;4.07;;;27.20;99.90;;;;;;4165387;28;20726;-83
2023/07/17 09:13:44;;;;;;;9.63;4.43;;;27.90;99.90;;;;;;4165443;28;20267;-84
2023/07/17 09:15:44;;;;;;;8.65;3.92;;;27.00;99.90;;;;;;4149229;28;20191;-84
2023/07/17 09:17:45;;;;;;;13.13;4.10;;;26.50;99.90;;;;;;4149008;28;20327;-83
2023/07/17 09:19:46;;;;;;;21.05;5.00;;;26.10;99.90;;;;;;4165204;28;20666;-83
2023/07/17 09:21:47;;;;;;;11.90;4.50;;;25.30;99.90;;;;;;4148864;28;20211;-84
2023/07/17 09:23:53;;;;;;;9.25;4.20;;;25.30;99.90;;;;;;4148925;28;20173;-86
2023/07/17 09:25:54;;;;;;;13.43;4.35;;;25.40;99.90;;;;;;4166620;28;20168;-83
2023/07/17 09:27:55;;;;;;;13.25;4.22;;;25.20;99.90;;;;;;4148737;28;20708;-87
2023/07/17 09:29:55;;;;;;;10.90;4.38;;;24.90;99.90;;;;;;4165239;28;20176;-86
2023/07/17 09:31:57;;;;;;;13.40;4.30;;;24.70;99.90;;;;;;4165116;28;20692;-84
2023/07/17 09:34:00;;;;;;;13.15;4.70;;;24.30;99.90;;;;;;4165187;28;20626;-86
2023/07/17 09:36:01;;;;;;;15.68;4.70;;;24.20;99.90;;;;;;4164964;28;20585;-84
2023/07/17 09:38:07;;;;;;;11.82;4.22;;;24.10;99.90;;;;;;4181399;28;20210;-83
2023/07/17 09:40:11;;;;;;;9.70;3.83;;;24.10;99.90;;;;;;4165211;28;20169;-83
2023/07/17 09:42:30;;;;;;;20.77;4.90;;;23.90;99.90;;;;;;4165114;28;20656;-86
2023/07/17 09:44:31;;;;;;;16.58;5.03;;;23.90;99.90;;;;;;4164764;28;20258;-83
2023/07/17 09:46:37;;;;;;;10.40;5.10;;;23.80;99.90;;;;;;4148433;28;20181;-83
2023/07/17 09:48:38;;;;;;;7.68;4.20;;;23.90;99.90;;;;;;4166013;28;20192;-86
2023/07/17 09:50:39;;;;;;;11.10;4.75;;;24.00;99.90;;;;;;4148546;28;20689;-83
2023/07/17 09:52:42;;;;;;;10.95;4.30;;;23.70;99.90;;;;;;4181134;28;20258;-84
2023/07/17 09:54:44;;;;;;;9.35;4.47;;;23.50;99.90;;;;;;4148315;28;20177;-83
2023/07/17 09:56:46;;;;;;;11.57;4.45;;;23.70;99.90;;;;;;4164862;28;20207;-83
2023/07/17 09:58:50;;;;;;;13.00;4.55;;;23.60;99.90;;;;;;4165716;28;20715;-83
2023/07/17 10:00:53;;;;;;;14.55;4.40;;;23.20;99.90;;;;;;4165920;28;20191;-86
2023/07/17 10:03:03;;;;;;;10.23;4.13;;;22.60;99.90;;;;;;4164837;28;20176;-83
2023/07/17 10:05:05;;;;;;;9.00;3.70;;;23.00;99.90;;;;;;4164684;28;20251;-83
2023/07/17 10:07:07;;;;;;;10.88;4.68;;;22.90;99.90;;;;;;4164156;28;20176;-83
2023/07/17 10:09:13;;;;;;;7.55;4.25;;;23.10;99.90;;;;;;4165790;28;20610;-83
2023/07/17 10:11:15;;;;;;;9.45;4.25;;;23.80;99.90;;;;;;4148252;28;20302;-83
2023/07/17 10:13:16;;;;;;;11.60;4.55;;;24.60;99.90;;;;;;4147874;28;20629;-84
2023/07/17 10:15:17;;;;;;;14.18;4.72;;;24.10;99.90;;;;;;4164623;28;20172;-86
2023/07/17 10:17:27;;;;;;;9.68;4.70;;;24.20;99.90;;;;;;4148050;28;20256;-86
2023/07/17 10:19:43;;;;;;;13.60;5.07;;;24.40;99.90;;;;;;4164394;28;20191;-83
2023/07/17 10:21:55;;;;;;;18.88;4.57;;;24.50;99.90;;;;;;4148143;28;20179;-83
2023/07/17 10:24:04;;;;;;;7.68;4.22;;;24.60;99.90;;;;;;4165908;28;20267;-86
2023/07/17 10:26:08;;;;;;;10.90;4.65;;;24.70;99.90;;;;;;4164377;28;20172;-83
2023/07/17 10:28:09;;;;;;;9.82;4.25;;;24.20;99.90;;;;;;4147859;28;20181;-86